createdAt,value
2017-11-18T00:01:56.621Z,27.50
2017-11-18T00:05:01.581Z,24.83
2017-11-18T00:08:06.936Z,25.10
2017-11-18T00:11:12.391Z,25.40
2017-11-18T00:14:17.981Z,29.30
2017-11-18T00:17:22.908Z,21.77
2017-11-18T00:24:04.077Z,25.87
2017-11-18T00:27:09.153Z,25.30
2017-11-18T00:30:14.772Z,25.97
2017-11-18T00:33:20.748Z,22.20
2017-11-18T00:36:25.865Z,23.90
2017-11-18T00:39:31.025Z,23.90
2017-11-18T00:42:36.216Z,22.40
2017-11-18T00:45:42.110Z,24.93
2017-11-18T00:48:47.640Z,24.70
2017-11-18T00:51:53.450Z,24.47
2017-11-18T00:54:58.428Z,26.60
2017-11-18T00:58:04.050Z,24.90
2017-11-18T01:01:09.199Z,23.73
2017-11-18T01:04:14.679Z,24.27
2017-11-18T01:07:19.877Z,22.53
2017-11-18T01:10:25.236Z,25.67
2017-11-18T01:13:30.550Z,23.83
2017-11-18T01:16:36.124Z,24.67
2017-11-18T01:19:41.570Z,27.00
2017-11-18T01:22:47.633Z,28.27
2017-11-18T01:25:53.080Z,26.30
2017-11-18T01:28:57.905Z,27.60
2017-11-18T01:32:03.734Z,27.83
2017-11-18T01:35:09.529Z,28.80
2017-11-18T01:38:15.107Z,27.40
2017-11-18T01:41:20.316Z,26.27
2017-11-18T01:44:26.214Z,25.70
2017-11-18T01:47:31.252Z,26.73
2017-11-18T01:50:37.009Z,27.97
2017-11-18T01:53:41.942Z,27.50
2017-11-18T01:56:46.768Z,28.43
2017-11-18T01:59:51.837Z,28.47
2017-11-18T02:03:02.852Z,26.07
2017-11-18T02:06:11.745Z,26.47
2017-11-18T02:09:16.591Z,27.13
2017-11-18T02:12:23.293Z,24.67
2017-11-18T02:15:28.155Z,27.87
2017-11-18T02:18:34.794Z,29.17
2017-11-18T02:21:40.652Z,27.70
2017-11-18T02:24:47.318Z,28.70
2017-11-18T02:27:53.008Z,26.50
2017-11-18T02:30:58.033Z,27.10
2017-11-18T02:34:04.475Z,26.33
2017-11-18T02:37:10.104Z,28.40
2017-11-18T02:40:15.150Z,28.07
2017-11-18T02:43:20.922Z,25.40
2017-11-18T02:46:25.855Z,27.20
2017-11-18T02:49:31.282Z,27.47
2017-11-18T02:52:37.811Z,26.03
2017-11-18T02:55:43.300Z,25.97
2017-11-18T02:58:48.201Z,24.90
2017-11-18T03:01:53.765Z,22.97
2017-11-18T03:04:59.705Z,25.57
2017-11-18T03:08:06.286Z,22.97
2017-11-18T03:11:11.459Z,25.60
2017-11-18T03:14:17.698Z,23.10
2017-11-18T03:17:23.077Z,24.00
2017-11-18T03:20:28.596Z,23.93
2017-11-18T03:23:33.575Z,23.97
2017-11-18T03:26:38.685Z,25.87
2017-11-18T03:29:43.879Z,27.80
2017-11-18T03:32:49.120Z,27.83
2017-11-18T03:35:54.721Z,24.50
2017-11-18T03:39:00.053Z,25.67
2017-11-18T03:42:06.098Z,25.90
2017-11-18T03:45:11.560Z,27.67
2017-11-18T03:48:17.260Z,27.53
2017-11-18T03:51:22.714Z,27.90
2017-11-18T03:54:28.757Z,26.27
2017-11-18T03:57:34.079Z,29.30
2017-11-18T04:00:39.758Z,30.60
2017-11-18T04:03:44.801Z,28.10
2017-11-18T04:06:49.740Z,26.93
2017-11-18T04:09:55.154Z,29.77
2017-11-18T04:13:00.340Z,27.57
2017-11-18T04:16:05.969Z,30.53
2017-11-18T04:19:12.080Z,26.67
2017-11-18T04:22:17.695Z,29.83
2017-11-18T04:25:22.668Z,29.83
2017-11-18T04:28:27.684Z,29.03
2017-11-18T04:31:32.841Z,28.60
2017-11-18T04:34:37.994Z,29.80
2017-11-18T04:37:42.933Z,30.27
2017-11-18T04:40:49.217Z,30.47
2017-11-18T04:43:54.379Z,29.10
2017-11-18T04:46:59.419Z,30.60
2017-11-18T04:50:04.670Z,31.30
2017-11-18T04:53:10.147Z,27.30
2017-11-18T04:56:15.766Z,29.53
2017-11-18T04:59:22.101Z,28.40
2017-11-18T05:02:28.773Z,30.20
2017-11-18T05:05:34.562Z,27.60
2017-11-18T05:08:39.580Z,29.60
2017-11-18T05:11:44.878Z,29.27
2017-11-18T05:14:50.205Z,29.33
2017-11-18T05:17:55.681Z,26.03
2017-11-18T05:21:01.193Z,27.77
2017-11-18T05:24:06.831Z,28.83
2017-11-18T05:27:12.182Z,29.13
2017-11-18T05:30:17.873Z,27.20
2017-11-18T05:33:23.501Z,28.67
2017-11-18T05:36:28.318Z,28.50
2017-11-18T05:39:33.903Z,28.93
2017-11-18T05:42:39.215Z,26.80
2017-11-18T05:45:43.945Z,25.23
2017-11-18T05:48:49.101Z,26.40
2017-11-18T05:51:54.686Z,27.37
2017-11-18T05:55:00.830Z,26.20
2017-11-18T05:58:05.722Z,25.20
2017-11-18T06:01:11.629Z,25.27
2017-11-18T06:04:17.352Z,26.00
2017-11-18T06:07:22.984Z,23.03
2017-11-18T06:10:29.445Z,24.60
2017-11-18T06:13:35.055Z,23.70
2017-11-18T06:16:40.032Z,23.30
2017-11-18T06:19:44.993Z,25.20
2017-11-18T06:22:51.148Z,24.37
2017-11-18T06:25:57.400Z,23.90
2017-11-18T06:29:03.828Z,24.00
2017-11-18T06:32:09.552Z,24.63
2017-11-18T06:35:15.224Z,22.93
2017-11-18T06:38:20.681Z,22.93
2017-11-18T06:41:26.160Z,21.50
2017-11-18T06:44:31.695Z,21.53
2017-11-18T06:47:37.116Z,22.00
2017-11-18T06:50:42.204Z,23.10
2017-11-18T06:53:48.376Z,22.40
2017-11-18T06:56:53.069Z,21.00
2017-11-18T06:59:58.974Z,20.33
2017-11-18T07:03:04.591Z,22.50
2017-11-18T07:06:10.102Z,20.40
2017-11-18T07:09:17.343Z,22.93
2017-11-18T07:12:22.800Z,22.17
2017-11-18T07:15:27.577Z,21.47
2017-11-18T07:18:32.441Z,22.40
2017-11-18T07:21:38.381Z,21.67
2017-11-18T07:24:44.306Z,21.77
2017-11-18T07:27:49.946Z,23.40
2017-11-18T07:30:55.194Z,24.77
2017-11-18T07:34:01.649Z,23.50
2017-11-18T07:37:07.930Z,24.73
2017-11-18T07:40:12.886Z,25.70
2017-11-18T07:43:19.253Z,25.10
2017-11-18T07:46:24.097Z,25.20
2017-11-18T07:49:29.805Z,22.47
2017-11-18T07:52:35.810Z,23.73
2017-11-18T07:55:42.545Z,23.60
2017-11-18T07:58:48.360Z,25.53
2017-11-18T08:01:54.952Z,25.10
2017-11-18T08:05:00.874Z,25.37
2017-11-18T08:08:07.185Z,21.83
2017-11-18T08:11:11.952Z,25.20
2017-11-18T08:14:19.268Z,26.43
2017-11-18T08:17:25.049Z,25.43
2017-11-18T08:20:31.005Z,26.10
2017-11-18T08:23:37.285Z,25.20
2017-11-18T08:26:42.516Z,28.87
2017-11-18T08:29:47.805Z,27.40
2017-11-18T08:32:53.464Z,25.87
2017-11-18T08:35:58.310Z,27.93
2017-11-18T08:39:03.370Z,27.53
2017-11-18T08:42:08.968Z,28.00
2017-11-18T08:45:14.437Z,28.17
2017-11-18T08:48:20.069Z,26.77
2017-11-18T08:51:25.566Z,25.83
2017-11-18T08:54:31.208Z,26.83
2017-11-18T08:57:36.795Z,25.57
2017-11-18T09:00:43.740Z,26.77
2017-11-18T09:03:49.279Z,26.10
2017-11-18T09:06:54.990Z,27.50
2017-11-18T09:10:00.868Z,26.90
2017-11-18T09:13:06.557Z,27.50
2017-11-18T09:16:12.264Z,24.43
2017-11-18T09:19:17.272Z,29.50
2017-11-18T09:22:23.321Z,27.13
2017-11-18T09:25:28.739Z,27.50
2017-11-18T09:28:35.440Z,26.53
2017-11-18T09:31:41.306Z,25.30
2017-11-18T09:34:46.131Z,26.60
2017-11-18T09:37:51.835Z,25.23
2017-11-18T09:40:57.477Z,24.83
2017-11-18T09:44:02.864Z,23.00
2017-11-18T09:47:08.195Z,24.60
2017-11-18T09:50:13.633Z,19.73
2017-11-18T09:53:19.213Z,21.80
2017-11-18T09:56:24.357Z,20.90
2017-11-18T09:59:30.246Z,22.83
2017-11-18T10:02:35.673Z,22.20
2017-11-18T10:05:42.187Z,21.70
2017-11-18T10:08:47.907Z,22.07
2017-11-18T10:11:53.197Z,20.97
2017-11-18T10:15:00.505Z,20.87
2017-11-18T10:18:06.725Z,21.17
2017-11-18T10:21:13.093Z,21.20
2017-11-18T10:24:19.493Z,19.90
2017-11-18T10:27:25.696Z,19.50
2017-11-18T10:30:30.659Z,18.90
2017-11-18T10:33:36.408Z,22.73
2017-11-18T10:36:41.768Z,18.93
2017-11-18T10:39:48.113Z,18.73
2017-11-18T10:42:53.166Z,11.57
2017-11-18T10:45:59.353Z,9.17
2017-11-18T10:49:04.350Z,8.33
2017-11-18T10:52:10.381Z,9.37
2017-11-18T10:55:15.948Z,8.30
2017-11-18T10:58:21.060Z,5.77
2017-11-18T11:01:30.669Z,6.67
2017-11-18T11:04:35.631Z,7.57
2017-11-18T11:07:41.012Z,7.00
2017-11-18T11:10:46.440Z,5.93
2017-11-18T11:13:52.034Z,7.53
2017-11-18T11:16:57.595Z,6.67
2017-11-18T11:20:03.039Z,5.50
2017-11-18T11:23:07.997Z,6.73
2017-11-18T11:26:13.769Z,6.60
2017-11-18T11:29:19.221Z,6.37
2017-11-18T11:32:27.473Z,7.07
2017-11-18T11:35:34.162Z,6.63
2017-11-18T11:38:38.805Z,7.80
2017-11-18T11:41:44.233Z,6.63
2017-11-18T11:44:49.085Z,7.33
2017-11-18T11:47:54.734Z,5.80
2017-11-18T11:51:00.245Z,5.30
2017-11-18T11:54:05.410Z,5.30
2017-11-18T11:57:11.297Z,5.97
2017-11-18T12:00:16.720Z,5.73
2017-11-18T12:03:22.033Z,6.40
2017-11-18T12:06:27.036Z,5.87
2017-11-18T12:09:40.090Z,4.77
2017-11-18T12:12:45.885Z,5.53
2017-11-18T12:15:50.685Z,4.80
2017-11-18T12:18:55.996Z,4.20
2017-11-18T12:22:00.773Z,4.73
2017-11-18T12:25:06.092Z,5.27
2017-11-18T12:28:12.249Z,5.00
2017-11-18T12:31:17.605Z,4.97
2017-11-18T12:34:22.981Z,5.00
2017-11-18T12:37:28.637Z,4.73
2017-11-18T12:40:35.072Z,5.60
2017-11-18T12:43:40.225Z,5.07
2017-11-18T12:46:45.947Z,4.60
2017-11-18T12:49:50.767Z,4.57
2017-11-18T12:52:56.471Z,5.17
2017-11-18T12:56:02.073Z,4.20
2017-11-18T12:59:07.022Z,4.97
2017-11-18T13:02:12.550Z,4.50
2017-11-18T13:05:18.379Z,5.20
2017-11-18T13:08:23.702Z,4.80
2017-11-18T13:11:30.794Z,4.50
2017-11-18T13:14:37.146Z,5.13
2017-11-18T13:17:43.343Z,4.87
2017-11-18T13:20:49.111Z,5.40
2017-11-18T13:23:55.091Z,4.50
2017-11-18T13:27:00.245Z,4.93
2017-11-18T13:30:05.733Z,4.37
2017-11-18T13:33:12.085Z,4.67
2017-11-18T13:36:18.073Z,3.37
2017-11-18T13:39:23.820Z,4.70
2017-11-18T13:42:28.902Z,3.83
2017-11-18T13:45:34.612Z,4.27
2017-11-18T13:48:40.496Z,5.03
2017-11-18T13:51:45.780Z,5.53
2017-11-18T13:54:50.686Z,5.37
2017-11-18T13:57:56.041Z,6.53
2017-11-18T14:01:01.170Z,5.17
2017-11-18T14:04:06.824Z,6.30
2017-11-18T14:07:12.376Z,5.90
2017-11-18T14:10:18.425Z,6.60
2017-11-18T14:13:24.053Z,5.87
2017-11-18T14:16:30.134Z,6.70
2017-11-18T14:19:36.010Z,6.77
2017-11-18T14:22:41.069Z,6.03
2017-11-18T14:25:47.437Z,7.20
2017-11-18T14:28:53.211Z,6.50
2017-11-18T14:31:58.033Z,5.80
2017-11-18T14:35:03.090Z,7.90
2017-11-18T14:38:08.238Z,4.50
2017-11-18T14:41:15.781Z,5.57
2017-11-18T14:44:21.959Z,6.47
2017-11-18T14:47:27.592Z,5.50
2017-11-18T14:50:32.674Z,5.77
2017-11-18T14:53:38.357Z,6.07
2017-11-18T14:56:44.014Z,5.37
2017-11-18T14:59:49.460Z,7.20
2017-11-18T15:02:55.220Z,6.23
2017-11-18T15:06:00.409Z,6.10
2017-11-18T15:09:05.913Z,5.33
2017-11-18T15:12:12.355Z,5.77
2017-11-18T15:19:20.353Z,6.20
2017-11-18T15:26:13.545Z,4.43
2017-11-18T15:29:20.034Z,6.57
2017-11-18T15:32:27.237Z,6.70
2017-11-18T15:35:36.437Z,6.40
2017-11-18T15:38:45.132Z,6.73
2017-11-18T15:41:50.455Z,6.90
2017-11-18T15:48:39.787Z,8.93
2017-11-18T15:51:47.112Z,8.10
2017-11-18T15:54:58.924Z,8.20
2017-11-18T15:58:04.329Z,7.33
2017-11-18T16:01:15.225Z,8.27
2017-11-18T16:04:24.388Z,7.57
2017-11-18T16:11:09.443Z,7.53
2017-11-18T16:14:14.978Z,8.03
2017-11-18T16:17:19.814Z,8.13
2017-11-18T16:20:24.922Z,7.87
2017-11-18T16:23:30.905Z,6.83
2017-11-18T16:26:36.111Z,9.30
2017-11-18T16:29:41.668Z,8.50
2017-11-18T16:32:46.985Z,7.03
2017-11-18T16:35:52.524Z,6.83
2017-11-18T16:38:58.027Z,8.13
2017-11-18T16:42:03.374Z,8.10
2017-11-18T16:45:09.408Z,8.60
2017-11-18T16:48:14.402Z,9.57
2017-11-18T16:51:20.292Z,6.63
2017-11-18T16:54:26.033Z,7.10
2017-11-18T16:57:31.832Z,7.73
2017-11-18T17:00:37.586Z,7.80
2017-11-18T17:03:43.221Z,7.97
2017-11-18T17:06:48.684Z,8.47
2017-11-18T17:09:53.549Z,6.77
2017-11-18T17:12:58.997Z,8.20
2017-11-18T17:16:04.614Z,7.60
2017-11-18T17:19:09.851Z,7.50
2017-11-18T17:22:15.134Z,6.67
2017-11-18T17:25:21.207Z,6.57
2017-11-18T17:28:26.081Z,7.10
2017-11-18T17:31:31.361Z,6.60
2017-11-18T17:34:37.235Z,5.47
2017-11-18T17:37:41.959Z,7.20
2017-11-18T17:40:47.056Z,6.33
2017-11-18T17:43:52.177Z,7.80
2017-11-18T17:46:59.039Z,8.90
2017-11-18T17:50:05.263Z,8.50
2017-11-18T17:53:10.313Z,8.10
2017-11-18T17:56:16.094Z,9.60
2017-11-18T17:59:21.205Z,8.80
2017-11-18T18:02:26.789Z,9.30
2017-11-18T18:05:31.625Z,9.07
2017-11-18T18:08:36.469Z,9.43
2017-11-18T18:11:43.088Z,9.33
2017-11-18T18:14:48.081Z,9.03
2017-11-18T18:17:53.605Z,9.50
2017-11-18T18:20:58.710Z,9.17
2017-11-18T18:24:03.674Z,10.07
2017-11-18T18:27:08.973Z,9.10
2017-11-18T18:30:14.461Z,9.57
2017-11-18T18:33:19.929Z,9.03
2017-11-18T18:36:25.196Z,8.53
2017-11-18T18:39:30.168Z,8.90
2017-11-18T18:42:35.049Z,8.40
2017-11-18T18:45:40.468Z,9.03
2017-11-18T18:48:45.555Z,7.60
2017-11-18T18:51:50.300Z,8.00
2017-11-18T18:54:55.268Z,8.70
2017-11-18T18:58:00.474Z,8.37
2017-11-18T19:01:05.191Z,8.30
2017-11-18T19:04:10.721Z,8.40
2017-11-18T19:07:15.808Z,9.40
2017-11-18T19:10:20.797Z,9.00
2017-11-18T19:13:26.462Z,8.30
2017-11-18T19:16:32.765Z,8.00
2017-11-18T19:19:37.920Z,7.90
2017-11-18T19:22:43.445Z,7.80
2017-11-18T19:25:48.541Z,7.87
2017-11-18T19:28:54.608Z,7.23
2017-11-18T19:32:00.181Z,6.87
2017-11-18T19:35:05.855Z,7.83
2017-11-18T19:38:12.201Z,8.10
2017-11-18T19:41:17.370Z,8.33
2017-11-18T19:44:23.325Z,7.77
2017-11-18T19:47:28.209Z,4.50
2017-11-18T19:50:33.825Z,7.13
2017-11-18T19:53:39.542Z,5.87
2017-11-18T19:56:44.364Z,5.93
2017-11-18T19:59:49.733Z,5.13
2017-11-18T20:02:54.580Z,5.13
2017-11-18T20:06:00.257Z,6.07
2017-11-18T20:09:05.252Z,6.77
2017-11-18T20:12:10.600Z,5.37
2017-11-18T20:15:17.074Z,6.17
2017-11-18T20:18:22.613Z,6.47
2017-11-18T20:21:29.109Z,5.77
2017-11-18T20:24:34.023Z,5.60
2017-11-18T20:27:40.313Z,6.70
2017-11-18T20:30:46.782Z,5.97
2017-11-18T20:33:52.829Z,5.93
2017-11-18T20:36:57.937Z,6.27
2017-11-18T20:40:02.898Z,6.90
2017-11-18T20:43:08.046Z,5.50
2017-11-18T20:46:12.866Z,7.20
2017-11-18T20:49:18.233Z,5.30
2017-11-18T20:52:24.226Z,6.43
2017-11-18T20:55:29.562Z,4.80
2017-11-18T20:58:34.755Z,5.10
2017-11-18T21:01:39.920Z,4.97
2017-11-18T21:04:46.087Z,4.30
2017-11-18T21:07:58.488Z,4.90
2017-11-18T21:11:03.680Z,4.13
2017-11-18T21:14:09.005Z,4.03
2017-11-18T21:17:13.868Z,4.47
2017-11-18T21:20:18.770Z,4.63
2017-11-18T21:23:24.157Z,5.43
2017-11-18T21:26:30.834Z,5.60
2017-11-18T21:29:36.380Z,4.73
2017-11-18T21:32:41.898Z,6.13
2017-11-18T21:35:48.702Z,4.43
2017-11-18T21:38:54.170Z,5.33
2017-11-18T21:41:59.027Z,5.10
2017-11-18T21:45:03.988Z,4.27
2017-11-18T21:48:10.552Z,5.67
2017-11-18T21:51:16.031Z,4.00
2017-11-18T21:54:21.089Z,4.60
2017-11-18T21:57:26.779Z,4.67
2017-11-18T22:00:32.493Z,5.17
2017-11-18T22:03:37.866Z,4.50
2017-11-18T22:06:43.846Z,5.63
2017-11-18T22:09:49.164Z,5.70
2017-11-18T22:12:54.938Z,5.80
2017-11-18T22:16:00.077Z,5.60
2017-11-18T22:19:05.105Z,6.00
2017-11-18T22:22:10.937Z,5.80
2017-11-18T22:25:16.106Z,5.60
2017-11-18T22:28:22.269Z,6.63
2017-11-18T22:31:27.253Z,6.13
2017-11-18T22:34:32.888Z,6.47
2017-11-18T22:37:38.109Z,4.30
2017-11-18T22:40:43.389Z,4.93
2017-11-18T22:43:49.772Z,5.33
2017-11-18T22:46:55.675Z,6.80
2017-11-18T22:50:00.457Z,6.80
2017-11-18T22:53:06.134Z,6.57
2017-11-18T22:56:11.293Z,6.50
2017-11-18T22:59:16.793Z,7.07
2017-11-18T23:02:21.905Z,7.20
2017-11-18T23:05:27.080Z,6.83
2017-11-18T23:08:32.837Z,6.60
2017-11-18T23:11:38.041Z,7.50
2017-11-18T23:14:43.701Z,7.23
2017-11-18T23:17:49.493Z,9.03
2017-11-18T23:20:54.292Z,7.40
2017-11-18T23:23:59.889Z,7.60
2017-11-18T23:27:05.317Z,7.30
2017-11-18T23:30:10.637Z,7.80
2017-11-18T23:33:15.985Z,6.50
2017-11-18T23:36:21.558Z,7.53
2017-11-18T23:39:27.293Z,7.63
2017-11-18T23:42:33.128Z,7.00
2017-11-18T23:45:38.379Z,6.70
2017-11-18T23:48:44.773Z,5.73
2017-11-18T23:51:50.447Z,7.33
2017-11-18T23:54:55.905Z,5.13
2017-11-18T23:58:01.545Z,6.27
